sensor_id;sensor_type;location;lat;lon;timestamp;temperature;humidity
4695;DHT22;2361;49.540;8.390;2024-01-30T00:01:04;4.10;99.90
4695;DHT22;2361;49.540;8.390;2024-01-30T00:03:26;4.10;99.90
4695;DHT22;2361;49.540;8.390;2024-01-30T00:05:48;4.20;99.90
4695;DHT22;2361;49.540;8.390;2024-01-30T00:08:10;4.20;99.90
4695;DHT22;2361;49.540;8.390;2024-01-30T00:10:33;4.20;99.90
4695;DHT22;2361;49.540;8.390;2024-01-30T00:12:54;4.20;99.90
4695;DHT22;2361;49.540;8.390;2024-01-30T00:15:16;4.20;99.90
4695;DHT22;2361;49.540;8.390;2024-01-30T00:17:39;4.10;99.90
4695;DHT22;2361;49.540;8.390;2024-01-30T00:20:01;4.10;99.90
4695;DHT22;2361;49.540;8.390;2024-01-30T00:22:26;4.10;99.90
4695;DHT22;2361;49.540;8.390;2024-01-30T00:24:51;4.00;99.90
4695;DHT22;2361;49.540;8.390;2024-01-30T00:27:13;4.00;99.90
4695;DHT22;2361;49.540;8.390;2024-01-30T00:29:35;4.00;99.90
4695;DHT22;2361;49.540;8.390;2024-01-30T00:31:57;4.00;99.90
4695;DHT22;2361;49.540;8.390;2024-01-30T00:34:19;4.00;99.90
4695;DHT22;2361;49.540;8.390;2024-01-30T00:36:41;4.00;99.90
4695;DHT22;2361;49.540;8.390;2024-01-30T00:39:03;3.90;99.90
4695;DHT22;2361;49.540;8.390;2024-01-30T00:41:30;3.90;99.90
4695;DHT22;2361;49.540;8.390;2024-01-30T00:43:52;3.90;99.90
4695;DHT22;2361;49.540;8.390;2024-01-30T00:46:14;3.80;99.90
4695;DHT22;2361;49.540;8.390;2024-01-30T00:48:36;3.90;99.90
4695;DHT22;2361;49.540;8.390;2024-01-30T00:50:58;3.90;99.90
4695;DHT22;2361;49.540;8.390;2024-01-30T00:53:20;3.90;99.90
4695;DHT22;2361;49.540;8.390;2024-01-30T00:55:42;3.90;99.90
4695;DHT22;2361;49.540;8.390;2024-01-30T00:58:05;4.00;99.90
4695;DHT22;2361;49.540;8.390;2024-01-30T01:00:27;4.00;99.90
4695;DHT22;2361;49.540;8.390;2024-01-30T01:02:51;4.10;99.90
4695;DHT22;2361;49.540;8.390;2024-01-30T01:05:13;4.10;99.90
4695;DHT22;2361;49.540;8.390;2024-01-30T01:07:35;4.10;99.90
4695;DHT22;2361;49.540;8.390;2024-01-30T01:09:57;4.20;99.90
4695;DHT22;2361;49.540;8.390;2024-01-30T01:12:19;4.20;99.90
4695;DHT22;2361;49.540;8.390;2024-01-30T01:14:41;4.20;99.90
4695;DHT22;2361;49.540;8.390;2024-01-30T01:17:03;4.30;99.90
4695;DHT22;2361;49.540;8.390;2024-01-30T01:19:25;4.30;99.90
4695;DHT22;2361;49.540;8.390;2024-01-30T01:21:47;4.30;99.90
4695;DHT22;2361;49.540;8.390;2024-01-30T01:24:09;4.20;99.90
4695;DHT22;2361;49.540;8.390;2024-01-30T01:26:31;4.20;99.90
4695;DHT22;2361;49.540;8.390;2024-01-30T01:28:53;4.20;99.90
4695;DHT22;2361;49.540;8.390;2024-01-30T01:31:15;4.20;99.90
4695;DHT22;2361;49.540;8.390;2024-01-30T01:33:37;4.20;99.90
4695;DHT22;2361;49.540;8.390;2024-01-30T01:36:00;4.20;99.90
4695;DHT22;2361;49.540;8.390;2024-01-30T01:38:24;4.20;99.90
4695;DHT22;2361;49.540;8.390;2024-01-30T01:40:46;4.20;99.90
4695;DHT22;2361;49.540;8.390;2024-01-30T01:43:08;4.20;99.90
4695;DHT22;2361;49.540;8.390;2024-01-30T01:45:30;4.10;99.90
4695;DHT22;2361;49.540;8.390;2024-01-30T01:47:52;4.10;99.90
4695;DHT22;2361;49.540;8.390;2024-01-30T01:50:16;4.20;99.90
4695;DHT22;2361;49.540;8.390;2024-01-30T01:52:41;4.20;99.90
4695;DHT22;2361;49.540;8.390;2024-01-30T01:55:03;4.20;99.90
4695;DHT22;2361;49.540;8.390;2024-01-30T01:57:26;4.20;99.90
4695;DHT22;2361;49.540;8.390;2024-01-30T01:59:48;4.20;99.90
4695;DHT22;2361;49.540;8.390;2024-01-30T02:02:11;4.20;99.90
4695;DHT22;2361;49.540;8.390;2024-01-30T02:04:34;4.30;99.90
4695;DHT22;2361;49.540;8.390;2024-01-30T02:06:56;4.30;99.90
4695;DHT22;2361;49.540;8.390;2024-01-30T02:09:19;4.30;99.90
4695;DHT22;2361;49.540;8.390;2024-01-30T02:11:41;4.20;99.90
4695;DHT22;2361;49.540;8.390;2024-01-30T02:14:03;4.20;99.90
4695;DHT22;2361;49.540;8.390;2024-01-30T02:16:26;4.30;99.90
4695;DHT22;2361;49.540;8.390;2024-01-30T02:18:49;4.30;99.90
4695;DHT22;2361;49.540;8.390;2024-01-30T02:21:11;4.30;99.90
4695;DHT22;2361;49.540;8.390;2024-01-30T02:23:34;4.30;99.90
4695;DHT22;2361;49.540;8.390;2024-01-30T02:25:59;4.30;99.90
4695;DHT22;2361;49.540;8.390;2024-01-30T02:28:21;4.30;99.90
4695;DHT22;2361;49.540;8.390;2024-01-30T02:30:43;4.30;99.90
4695;DHT22;2361;49.540;8.390;2024-01-30T02:33:06;4.20;99.90
4695;DHT22;2361;49.540;8.390;2024-01-30T02:35:28;4.20;99.90
4695;DHT22;2361;49.540;8.390;2024-01-30T02:37:50;4.10;99.90
4695;DHT22;2361;49.540;8.390;2024-01-30T02:40:12;4.10;99.90
4695;DHT22;2361;49.540;8.390;2024-01-30T02:42:34;4.10;99.90
4695;DHT22;2361;49.540;8.390;2024-01-30T02:44:56;4.00;99.90
4695;DHT22;2361;49.540;8.390;2024-01-30T02:47:17;4.00;99.90
4695;DHT22;2361;49.540;8.390;2024-01-30T02:49:39;4.00;99.90
4695;DHT22;2361;49.540;8.390;2024-01-30T02:52:02;3.90;99.90
4695;DHT22;2361;49.540;8.390;2024-01-30T02:54:24;3.90;99.90
4695;DHT22;2361;49.540;8.390;2024-01-30T02:56:46;3.80;99.90
4695;DHT22;2361;49.540;8.390;2024-01-30T02:59:10;3.80;99.90
4695;DHT22;2361;49.540;8.390;2024-01-30T03:01:31;3.80;99.90
4695;DHT22;2361;49.540;8.390;2024-01-30T03:03:54;3.80;99.90
4695;DHT22;2361;49.540;8.390;2024-01-30T03:06:16;3.70;99.90
4695;DHT22;2361;49.540;8.390;2024-01-30T03:08:39;3.70;99.90
4695;DHT22;2361;49.540;8.390;2024-01-30T03:11:01;3.70;99.90
4695;DHT22;2361;49.540;8.390;2024-01-30T03:13:23;3.70;99.90
4695;DHT22;2361;49.540;8.390;2024-01-30T03:15:46;3.70;99.90
4695;DHT22;2361;49.540;8.390;2024-01-30T03:18:08;3.60;99.90
4695;DHT22;2361;49.540;8.390;2024-01-30T03:20:30;3.60;99.90
4695;DHT22;2361;49.540;8.390;2024-01-30T03:22:54;3.60;99.90
4695;DHT22;2361;49.540;8.390;2024-01-30T03:25:17;3.60;99.90
4695;DHT22;2361;49.540;8.390;2024-01-30T03:27:38;3.60;99.90
4695;DHT22;2361;49.540;8.390;2024-01-30T03:30:00;3.50;99.90
4695;DHT22;2361;49.540;8.390;2024-01-30T03:32:23;3.50;99.90
4695;DHT22;2361;49.540;8.390;2024-01-30T03:34:45;3.50;99.90
4695;DHT22;2361;49.540;8.390;2024-01-30T03:37:07;3.50;99.90
4695;DHT22;2361;49.540;8.390;2024-01-30T03:39:30;3.40;99.90
4695;DHT22;2361;49.540;8.390;2024-01-30T03:41:52;3.40;99.90
4695;DHT22;2361;49.540;8.390;2024-01-30T03:44:14;3.40;99.90
4695;DHT22;2361;49.540;8.390;2024-01-30T03:46:36;3.40;99.90
4695;DHT22;2361;49.540;8.390;2024-01-30T03:48:58;3.40;99.90
4695;DHT22;2361;49.540;8.390;2024-01-30T03:51:20;3.40;99.90
4695;DHT22;2361;49.540;8.390;2024-01-30T03:53:42;3.40;99.90
4695;DHT22;2361;49.540;8.390;2024-01-30T03:56:04;3.40;99.90
4695;DHT22;2361;49.540;8.390;2024-01-30T03:58:26;3.40;99.90
4695;DHT22;2361;49.540;8.390;2024-01-30T04:00:49;3.40;99.90
4695;DHT22;2361;49.540;8.390;2024-01-30T04:03:11;3.40;99.90
4695;DHT22;2361;49.540;8.390;2024-01-30T04:05:34;3.40;99.90
4695;DHT22;2361;49.540;8.390;2024-01-30T04:07:56;3.30;99.90
4695;DHT22;2361;49.540;8.390;2024-01-30T04:10:17;3.30;99.90
4695;DHT22;2361;49.540;8.390;2024-01-30T04:12:39;3.30;99.90
4695;DHT22;2361;49.540;8.390;2024-01-30T04:15:02;3.30;99.90
4695;DHT22;2361;49.540;8.390;2024-01-30T04:17:25;3.30;99.90
4695;DHT22;2361;49.540;8.390;2024-01-30T04:19:47;3.30;99.90
4695;DHT22;2361;49.540;8.390;2024-01-30T04:22:09;3.30;99.90
4695;DHT22;2361;49.540;8.390;2024-01-30T04:24:31;3.20;99.90
4695;DHT22;2361;49.540;8.390;2024-01-30T04:26:53;3.20;99.90
4695;DHT22;2361;49.540;8.390;2024-01-30T04:29:15;3.20;99.90
4695;DHT22;2361;49.540;8.390;2024-01-30T04:31:37;3.20;99.90
4695;DHT22;2361;49.540;8.390;2024-01-30T04:33:59;3.20;99.90
4695;DHT22;2361;49.540;8.390;2024-01-30T04:36:21;3.20;99.90
4695;DHT22;2361;49.540;8.390;2024-01-30T04:38:43;3.20;99.90
4695;DHT22;2361;49.540;8.390;2024-01-30T04:41:05;3.20;99.90
4695;DHT22;2361;49.540;8.390;2024-01-30T04:43:27;3.10;99.90
4695;DHT22;2361;49.540;8.390;2024-01-30T04:45:49;3.10;99.90
4695;DHT22;2361;49.540;8.390;2024-01-30T04:48:11;3.10;99.90
4695;DHT22;2361;49.540;8.390;2024-01-30T04:50:33;3.10;99.90
4695;DHT22;2361;49.540;8.390;2024-01-30T04:52:55;3.10;99.90
4695;DHT22;2361;49.540;8.390;2024-01-30T04:55:17;3.10;99.90
4695;DHT22;2361;49.540;8.390;2024-01-30T04:57:42;3.10;99.90
4695;DHT22;2361;49.540;8.390;2024-01-30T05:00:05;3.10;99.90
4695;DHT22;2361;49.540;8.390;2024-01-30T05:02:27;3.10;99.90
4695;DHT22;2361;49.540;8.390;2024-01-30T05:04:49;3.20;99.90
4695;DHT22;2361;49.540;8.390;2024-01-30T05:07:11;3.10;99.90
4695;DHT22;2361;49.540;8.390;2024-01-30T05:09:33;3.20;99.90
4695;DHT22;2361;49.540;8.390;2024-01-30T05:11:55;3.10;99.90
4695;DHT22;2361;49.540;8.390;2024-01-30T05:14:17;3.20;99.90
4695;DHT22;2361;49.540;8.390;2024-01-30T05:16:39;3.20;99.90
4695;DHT22;2361;49.540;8.390;2024-01-30T05:19:01;3.20;99.90
4695;DHT22;2361;49.540;8.390;2024-01-30T05:21:24;3.20;99.90
4695;DHT22;2361;49.540;8.390;2024-01-30T05:23:46;3.20;99.90
4695;DHT22;2361;49.540;8.390;2024-01-30T05:26:08;3.30;99.90
4695;DHT22;2361;49.540;8.390;2024-01-30T05:28:30;3.30;99.90
4695;DHT22;2361;49.540;8.390;2024-01-30T05:30:52;3.30;99.90
4695;DHT22;2361;49.540;8.390;2024-01-30T05:33:14;3.30;99.90
4695;DHT22;2361;49.540;8.390;2024-01-30T05:35:36;3.40;99.90
4695;DHT22;2361;49.540;8.390;2024-01-30T05:37:58;3.40;99.90
4695;DHT22;2361;49.540;8.390;2024-01-30T05:40:20;3.40;99.90
4695;DHT22;2361;49.540;8.390;2024-01-30T05:42:42;3.50;99.90
4695;DHT22;2361;49.540;8.390;2024-01-30T05:45:05;3.50;99.90
4695;DHT22;2361;49.540;8.390;2024-01-30T05:47:27;3.40;99.90
4695;DHT22;2361;49.540;8.390;2024-01-30T05:49:49;3.40;99.90
4695;DHT22;2361;49.540;8.390;2024-01-30T05:52:11;3.50;99.90
4695;DHT22;2361;49.540;8.390;2024-01-30T05:54:33;3.50;99.90
4695;DHT22;2361;49.540;8.390;2024-01-30T05:56:55;3.50;99.90
4695;DHT22;2361;49.540;8.390;2024-01-30T05:59:17;3.50;99.90
4695;DHT22;2361;49.540;8.390;2024-01-30T06:01:45;3.60;99.90
4695;DHT22;2361;49.540;8.390;2024-01-30T06:04:08;3.60;99.90
4695;DHT22;2361;49.540;8.390;2024-01-30T06:06:30;3.60;99.90
4695;DHT22;2361;49.540;8.390;2024-01-30T06:08:52;3.60;99.90
4695;DHT22;2361;49.540;8.390;2024-01-30T06:11:16;3.70;99.90
4695;DHT22;2361;49.540;8.390;2024-01-30T06:13:38;3.70;99.90
4695;DHT22;2361;49.540;8.390;2024-01-30T06:16:00;3.70;99.90
4695;DHT22;2361;49.540;8.390;2024-01-30T06:18:22;3.70;99.90
4695;DHT22;2361;49.540;8.390;2024-01-30T06:20:44;3.70;99.90
4695;DHT22;2361;49.540;8.390;2024-01-30T06:23:06;3.70;99.90
4695;DHT22;2361;49.540;8.390;2024-01-30T06:25:28;3.70;99.90
4695;DHT22;2361;49.540;8.390;2024-01-30T06:27:50;3.70;99.90
4695;DHT22;2361;49.540;8.390;2024-01-30T06:30:12;3.80;99.90
4695;DHT22;2361;49.540;8.390;2024-01-30T06:32:35;3.80;99.90
4695;DHT22;2361;49.540;8.390;2024-01-30T06:34:58;3.80;99.90
4695;DHT22;2361;49.540;8.390;2024-01-30T06:37:19;3.80;99.90
4695;DHT22;2361;49.540;8.390;2024-01-30T06:39:42;3.80;99.90
4695;DHT22;2361;49.540;8.390;2024-01-30T06:42:04;3.80;99.90
4695;DHT22;2361;49.540;8.390;2024-01-30T06:44:26;3.80;99.90
4695;DHT22;2361;49.540;8.390;2024-01-30T06:46:51;3.80;99.90
4695;DHT22;2361;49.540;8.390;2024-01-30T06:49:13;3.80;99.90
4695;DHT22;2361;49.540;8.390;2024-01-30T06:51:34;3.80;99.90
4695;DHT22;2361;49.540;8.390;2024-01-30T06:53:56;3.80;99.90
4695;DHT22;2361;49.540;8.390;2024-01-30T06:56:18;3.80;99.90
4695;DHT22;2361;49.540;8.390;2024-01-30T06:58:42;3.80;99.90
4695;DHT22;2361;49.540;8.390;2024-01-30T07:01:04;3.80;99.90
4695;DHT22;2361;49.540;8.390;2024-01-30T07:03:26;3.80;99.90
4695;DHT22;2361;49.540;8.390;2024-01-30T07:05:48;3.90;99.90
4695;DHT22;2361;49.540;8.390;2024-01-30T07:08:10;3.90;99.90
4695;DHT22;2361;49.540;8.390;2024-01-30T07:10:32;3.90;99.90
4695;DHT22;2361;49.540;8.390;2024-01-30T07:12:54;3.90;99.90
4695;DHT22;2361;49.540;8.390;2024-01-30T07:15:16;3.90;99.90
4695;DHT22;2361;49.540;8.390;2024-01-30T07:17:41;3.80;99.90
4695;DHT22;2361;49.540;8.390;2024-01-30T07:20:03;3.90;99.90
4695;DHT22;2361;49.540;8.390;2024-01-30T07:22:26;3.90;99.90
4695;DHT22;2361;49.540;8.390;2024-01-30T07:24:48;3.90;99.90
4695;DHT22;2361;49.540;8.390;2024-01-30T07:27:11;4.00;99.90
4695;DHT22;2361;49.540;8.390;2024-01-30T07:29:33;4.00;99.90
4695;DHT22;2361;49.540;8.390;2024-01-30T07:31:55;4.00;99.90
4695;DHT22;2361;49.540;8.390;2024-01-30T07:34:17;4.10;99.90
4695;DHT22;2361;49.540;8.390;2024-01-30T07:36:39;4.10;99.90
4695;DHT22;2361;49.540;8.390;2024-01-30T07:39:01;4.10;99.90
4695;DHT22;2361;49.540;8.390;2024-01-30T07:41:22;4.20;99.90
4695;DHT22;2361;49.540;8.390;2024-01-30T07:43:46;4.20;99.90
4695;DHT22;2361;49.540;8.390;2024-01-30T07:46:08;4.40;99.90
4695;DHT22;2361;49.540;8.390;2024-01-30T07:48:30;4.50;99.90
4695;DHT22;2361;49.540;8.390;2024-01-30T07:50:52;4.60;99.90
4695;DHT22;2361;49.540;8.390;2024-01-30T07:53:14;4.70;99.90
4695;DHT22;2361;49.540;8.390;2024-01-30T07:55:36;4.80;99.90
4695;DHT22;2361;49.540;8.390;2024-01-30T07:57:58;5.00;99.90
4695;DHT22;2361;49.540;8.390;2024-01-30T08:00:21;5.10;99.90
4695;DHT22;2361;49.540;8.390;2024-01-30T08:02:43;5.30;99.90
4695;DHT22;2361;49.540;8.390;2024-01-30T08:05:05;5.50;99.90
4695;DHT22;2361;49.540;8.390;2024-01-30T08:07:27;5.70;99.90
4695;DHT22;2361;49.540;8.390;2024-01-30T08:09:51;6.00;99.90
4695;DHT22;2361;49.540;8.390;2024-01-30T08:12:13;6.30;99.90
4695;DHT22;2361;49.540;8.390;2024-01-30T08:14:35;6.60;99.90
4695;DHT22;2361;49.540;8.390;2024-01-30T08:16:57;7.10;99.90
4695;DHT22;2361;49.540;8.390;2024-01-30T08:19:19;7.80;99.90
4695;DHT22;2361;49.540;8.390;2024-01-30T08:21:41;8.30;99.90
4695;DHT22;2361;49.540;8.390;2024-01-30T08:24:04;8.60;99.90
4695;DHT22;2361;49.540;8.390;2024-01-30T08:26:26;8.80;99.90
4695;DHT22;2361;49.540;8.390;2024-01-30T08:28:48;8.80;99.90
4695;DHT22;2361;49.540;8.390;2024-01-30T08:31:10;8.70;99.90
4695;DHT22;2361;49.540;8.390;2024-01-30T08:33:33;8.80;99.90
4695;DHT22;2361;49.540;8.390;2024-01-30T08:35:55;8.50;99.90
4695;DHT22;2361;49.540;8.390;2024-01-30T08:38:17;8.30;99.90
4695;DHT22;2361;49.540;8.390;2024-01-30T08:40:39;7.90;99.90
4695;DHT22;2361;49.540;8.390;2024-01-30T08:43:01;7.70;99.90
4695;DHT22;2361;49.540;8.390;2024-01-30T08:45:24;7.30;99.90
4695;DHT22;2361;49.540;8.390;2024-01-30T08:47:46;7.10;99.90
4695;DHT22;2361;49.540;8.390;2024-01-30T08:50:08;6.90;99.90
4695;DHT22;2361;49.540;8.390;2024-01-30T08:52:30;6.80;99.90
4695;DHT22;2361;49.540;8.390;2024-01-30T08:54:52;6.60;99.90
4695;DHT22;2361;49.540;8.390;2024-01-30T08:57:14;6.40;99.90
4695;DHT22;2361;49.540;8.390;2024-01-30T08:59:36;6.30;99.90
4695;DHT22;2361;49.540;8.390;2024-01-30T09:01:57;6.20;99.90
4695;DHT22;2361;49.540;8.390;2024-01-30T09:04:32;6.10;99.90
4695;DHT22;2361;49.540;8.390;2024-01-30T09:06:54;6.10;99.90
4695;DHT22;2361;49.540;8.390;2024-01-30T09:09:17;6.10;99.90
4695;DHT22;2361;49.540;8.390;2024-01-30T09:11:39;6.00;99.90
4695;DHT22;2361;49.540;8.390;2024-01-30T09:14:01;6.00;99.90
4695;DHT22;2361;49.540;8.390;2024-01-30T09:16:22;6.00;99.90
4695;DHT22;2361;49.540;8.390;2024-01-30T09:18:45;6.00;99.90
4695;DHT22;2361;49.540;8.390;2024-01-30T09:21:07;6.00;99.90
4695;DHT22;2361;49.540;8.390;2024-01-30T09:23:29;6.10;99.90
4695;DHT22;2361;49.540;8.390;2024-01-30T09:25:51;6.20;99.90
4695;DHT22;2361;49.540;8.390;2024-01-30T09:28:13;6.40;99.90
4695;DHT22;2361;49.540;8.390;2024-01-30T09:30:35;6.50;99.90
4695;DHT22;2361;49.540;8.390;2024-01-30T09:32:56;6.70;99.90
4695;DHT22;2361;49.540;8.390;2024-01-30T09:35:19;6.90;99.90
4695;DHT22;2361;49.540;8.390;2024-01-30T09:37:41;7.00;99.90
4695;DHT22;2361;49.540;8.390;2024-01-30T09:40:04;7.20;99.90
4695;DHT22;2361;49.540;8.390;2024-01-30T09:42:35;7.30;99.90
4695;DHT22;2361;49.540;8.390;2024-01-30T09:45:01;7.40;99.90
4695;DHT22;2361;49.540;8.390;2024-01-30T09:47:24;7.60;99.90
4695;DHT22;2361;49.540;8.390;2024-01-30T09:49:48;7.70;99.90
4695;DHT22;2361;49.540;8.390;2024-01-30T09:52:11;8.10;99.90
4695;DHT22;2361;49.540;8.390;2024-01-30T09:54:34;8.50;99.90
4695;DHT22;2361;49.540;8.390;2024-01-30T09:56:58;8.70;99.90
4695;DHT22;2361;49.540;8.390;2024-01-30T09:59:20;8.80;99.90
4695;DHT22;2361;49.540;8.390;2024-01-30T10:01:42;8.80;99.90
4695;DHT22;2361;49.540;8.390;2024-01-30T10:04:06;8.80;99.90
4695;DHT22;2361;49.540;8.390;2024-01-30T10:06:29;8.70;99.90
4695;DHT22;2361;49.540;8.390;2024-01-30T10:08:51;8.60;99.90
4695;DHT22;2361;49.540;8.390;2024-01-30T10:11:15;8.50;99.90
4695;DHT22;2361;49.540;8.390;2024-01-30T10:13:38;8.30;99.90
4695;DHT22;2361;49.540;8.390;2024-01-30T10:16:01;8.30;99.90
4695;DHT22;2361;49.540;8.390;2024-01-30T10:18:24;8.20;99.90
4695;DHT22;2361;49.540;8.390;2024-01-30T10:20:46;8.40;99.90
4695;DHT22;2361;49.540;8.390;2024-01-30T10:23:09;8.70;99.90
4695;DHT22;2361;49.540;8.390;2024-01-30T10:25:31;8.90;99.90
4695;DHT22;2361;49.540;8.390;2024-01-30T10:27:53;9.00;99.90
4695;DHT22;2361;49.540;8.390;2024-01-30T10:30:17;9.00;99.90
4695;DHT22;2361;49.540;8.390;2024-01-30T10:32:38;9.00;99.90
4695;DHT22;2361;49.540;8.390;2024-01-30T10:35:00;9.00;99.90
4695;DHT22;2361;49.540;8.390;2024-01-30T10:37:25;8.90;99.90
4695;DHT22;2361;49.540;8.390;2024-01-30T10:39:48;8.90;99.90
4695;DHT22;2361;49.540;8.390;2024-01-30T10:42:15;9.20;99.90
4695;DHT22;2361;49.540;8.390;2024-01-30T10:44:57;9.50;99.90
4695;DHT22;2361;49.540;8.390;2024-01-30T10:47:29;9.90;99.90
4695;DHT22;2361;49.540;8.390;2024-01-30T10:49:52;10.00;99.90
4695;DHT22;2361;49.540;8.390;2024-01-30T10:52:16;10.00;99.90
4695;DHT22;2361;49.540;8.390;2024-01-30T10:54:40;9.90;99.90
4695;DHT22;2361;49.540;8.390;2024-01-30T10:57:03;9.70;99.90
4695;DHT22;2361;49.540;8.390;2024-01-30T10:59:26;9.70;99.90
4695;DHT22;2361;49.540;8.390;2024-01-30T11:01:50;9.70;99.90
4695;DHT22;2361;49.540;8.390;2024-01-30T11:04:12;9.70;99.90
4695;DHT22;2361;49.540;8.390;2024-01-30T11:06:41;9.70;99.90
4695;DHT22;2361;49.540;8.390;2024-01-30T11:09:05;9.60;99.90
4695;DHT22;2361;49.540;8.390;2024-01-30T11:11:32;9.50;99.90
4695;DHT22;2361;49.540;8.390;2024-01-30T11:13:53;9.50;99.90
4695;DHT22;2361;49.540;8.390;2024-01-30T11:16:15;9.50;99.90
4695;DHT22;2361;49.540;8.390;2024-01-30T11:18:38;9.40;99.90
4695;DHT22;2361;49.540;8.390;2024-01-30T11:21:00;9.40;99.90
4695;DHT22;2361;49.540;8.390;2024-01-30T11:23:26;9.40;99.90
4695;DHT22;2361;49.540;8.390;2024-01-30T11:25:48;9.30;99.90
4695;DHT22;2361;49.540;8.390;2024-01-30T11:28:16;9.30;99.90
4695;DHT22;2361;49.540;8.390;2024-01-30T11:30:39;9.20;99.90
4695;DHT22;2361;49.540;8.390;2024-01-30T11:33:10;9.20;99.90
4695;DHT22;2361;49.540;8.390;2024-01-30T11:35:36;9.20;99.90
4695;DHT22;2361;49.540;8.390;2024-01-30T11:38:07;9.10;99.90
4695;DHT22;2361;49.540;8.390;2024-01-30T11:40:31;9.10;99.90
4695;DHT22;2361;49.540;8.390;2024-01-30T11:42:56;9.10;99.90
4695;DHT22;2361;49.540;8.390;2024-01-30T11:45:19;9.10;99.90
4695;DHT22;2361;49.540;8.390;2024-01-30T11:47:41;9.20;99.90
4695;DHT22;2361;49.540;8.390;2024-01-30T11:50:05;9.20;99.90
4695;DHT22;2361;49.540;8.390;2024-01-30T11:52:28;9.20;99.90
4695;DHT22;2361;49.540;8.390;2024-01-30T11:54:50;9.30;99.90
4695;DHT22;2361;49.540;8.390;2024-01-30T11:57:12;9.30;99.90
4695;DHT22;2361;49.540;8.390;2024-01-30T11:59:34;9.30;99.90
4695;DHT22;2361;49.540;8.390;2024-01-30T12:01:56;9.40;99.90
4695;DHT22;2361;49.540;8.390;2024-01-30T12:04:18;9.40;99.90
4695;DHT22;2361;49.540;8.390;2024-01-30T12:06:40;9.50;99.90
4695;DHT22;2361;49.540;8.390;2024-01-30T12:09:03;9.50;99.90
4695;DHT22;2361;49.540;8.390;2024-01-30T12:11:31;9.60;99.90
4695;DHT22;2361;49.540;8.390;2024-01-30T12:13:54;9.60;99.90
4695;DHT22;2361;49.540;8.390;2024-01-30T12:16:16;9.60;99.90
4695;DHT22;2361;49.540;8.390;2024-01-30T12:18:38;9.60;99.90
4695;DHT22;2361;49.540;8.390;2024-01-30T12:21:00;9.60;99.90
4695;DHT22;2361;49.540;8.390;2024-01-30T12:23:22;9.70;99.90
4695;DHT22;2361;49.540;8.390;2024-01-30T12:25:47;9.70;99.90
4695;DHT22;2361;49.540;8.390;2024-01-30T12:28:09;9.70;99.90
4695;DHT22;2361;49.540;8.390;2024-01-30T12:30:34;9.80;99.90
4695;DHT22;2361;49.540;8.390;2024-01-30T12:32:56;9.90;99.90
4695;DHT22;2361;49.540;8.390;2024-01-30T12:35:20;9.90;99.90
4695;DHT22;2361;49.540;8.390;2024-01-30T12:37:44;10.00;99.90
4695;DHT22;2361;49.540;8.390;2024-01-30T12:40:10;10.00;99.90
4695;DHT22;2361;49.540;8.390;2024-01-30T12:42:35;10.10;99.90
4695;DHT22;2361;49.540;8.390;2024-01-30T12:44:58;10.20;99.90
4695;DHT22;2361;49.540;8.390;2024-01-30T12:47:23;10.20;99.90
4695;DHT22;2361;49.540;8.390;2024-01-30T12:49:45;10.20;99.90
4695;DHT22;2361;49.540;8.390;2024-01-30T12:52:07;10.30;99.90
4695;DHT22;2361;49.540;8.390;2024-01-30T12:54:29;10.40;99.90
4695;DHT22;2361;49.540;8.390;2024-01-30T12:56:51;10.40;99.90
4695;DHT22;2361;49.540;8.390;2024-01-30T12:59:13;10.50;99.90
4695;DHT22;2361;49.540;8.390;2024-01-30T13:01:35;10.50;99.90
4695;DHT22;2361;49.540;8.390;2024-01-30T13:03:57;10.60;99.90
4695;DHT22;2361;49.540;8.390;2024-01-30T13:06:20;10.60;99.90
4695;DHT22;2361;49.540;8.390;2024-01-30T13:08:42;10.70;99.90
4695;DHT22;2361;49.540;8.390;2024-01-30T13:11:04;10.70;99.90
4695;DHT22;2361;49.540;8.390;2024-01-30T13:13:26;10.80;99.90
4695;DHT22;2361;49.540;8.390;2024-01-30T13:15:48;10.80;99.90
4695;DHT22;2361;49.540;8.390;2024-01-30T13:18:10;10.80;99.90
4695;DHT22;2361;49.540;8.390;2024-01-30T13:20:33;10.90;99.90
4695;DHT22;2361;49.540;8.390;2024-01-30T13:22:55;10.90;99.90
4695;DHT22;2361;49.540;8.390;2024-01-30T13:25:17;10.90;99.90
4695;DHT22;2361;49.540;8.390;2024-01-30T13:27:39;11.00;99.90
4695;DHT22;2361;49.540;8.390;2024-01-30T13:30:01;11.00;99.90
4695;DHT22;2361;49.540;8.390;2024-01-30T13:32:23;11.00;99.90
4695;DHT22;2361;49.540;8.390;2024-01-30T13:34:45;11.00;99.90
4695;DHT22;2361;49.540;8.390;2024-01-30T13:37:07;11.00;99.90
4695;DHT22;2361;49.540;8.390;2024-01-30T13:39:29;11.00;99.90
4695;DHT22;2361;49.540;8.390;2024-01-30T13:41:57;11.10;99.90
4695;DHT22;2361;49.540;8.390;2024-01-30T13:44:19;11.10;99.90
4695;DHT22;2361;49.540;8.390;2024-01-30T13:46:42;11.10;99.90
4695;DHT22;2361;49.540;8.390;2024-01-30T13:49:04;11.20;99.90
4695;DHT22;2361;49.540;8.390;2024-01-30T13:51:27;11.20;99.90
4695;DHT22;2361;49.540;8.390;2024-01-30T13:53:49;11.20;99.90
4695;DHT22;2361;49.540;8.390;2024-01-30T13:56:11;11.20;99.90
4695;DHT22;2361;49.540;8.390;2024-01-30T13:58:33;11.10;99.90
4695;DHT22;2361;49.540;8.390;2024-01-30T14:00:57;11.10;99.90
4695;DHT22;2361;49.540;8.390;2024-01-30T14:03:20;11.20;99.90
4695;DHT22;2361;49.540;8.390;2024-01-30T14:05:41;11.20;99.90
4695;DHT22;2361;49.540;8.390;2024-01-30T14:08:04;11.20;99.90
4695;DHT22;2361;49.540;8.390;2024-01-30T14:10:27;11.20;99.90
4695;DHT22;2361;49.540;8.390;2024-01-30T14:12:49;11.30;99.90
4695;DHT22;2361;49.540;8.390;2024-01-30T14:15:11;11.30;99.90
4695;DHT22;2361;49.540;8.390;2024-01-30T14:17:48;11.30;99.90
4695;DHT22;2361;49.540;8.390;2024-01-30T14:20:11;11.20;99.90
4695;DHT22;2361;49.540;8.390;2024-01-30T14:22:34;11.20;99.90
4695;DHT22;2361;49.540;8.390;2024-01-30T14:24:56;11.10;99.90
4695;DHT22;2361;49.540;8.390;2024-01-30T14:27:18;11.10;99.90
4695;DHT22;2361;49.540;8.390;2024-01-30T14:29:40;11.10;99.90
4695;DHT22;2361;49.540;8.390;2024-01-30T14:32:04;11.10;99.90
4695;DHT22;2361;49.540;8.390;2024-01-30T14:34:26;11.10;99.90
4695;DHT22;2361;49.540;8.390;2024-01-30T14:36:48;11.10;99.90
4695;DHT22;2361;49.540;8.390;2024-01-30T14:39:10;11.10;99.90
4695;DHT22;2361;49.540;8.390;2024-01-30T14:41:32;11.10;99.90
4695;DHT22;2361;49.540;8.390;2024-01-30T14:43:54;11.10;99.90
4695;DHT22;2361;49.540;8.390;2024-01-30T14:46:17;11.10;99.90
4695;DHT22;2361;49.540;8.390;2024-01-30T14:48:39;11.10;99.90
4695;DHT22;2361;49.540;8.390;2024-01-30T14:51:01;11.10;99.90
4695;DHT22;2361;49.540;8.390;2024-01-30T14:53:23;11.10;99.90
4695;DHT22;2361;49.540;8.390;2024-01-30T14:55:45;11.10;99.90
4695;DHT22;2361;49.540;8.390;2024-01-30T14:58:06;11.10;99.90
4695;DHT22;2361;49.540;8.390;2024-01-30T15:00:29;11.10;99.90
4695;DHT22;2361;49.540;8.390;2024-01-30T15:02:51;11.10;99.90
4695;DHT22;2361;49.540;8.390;2024-01-30T15:05:16;11.00;99.90
4695;DHT22;2361;49.540;8.390;2024-01-30T15:07:39;11.00;99.90
4695;DHT22;2361;49.540;8.390;2024-01-30T15:10:02;10.90;99.90
4695;DHT22;2361;49.540;8.390;2024-01-30T15:12:25;10.90;99.90
4695;DHT22;2361;49.540;8.390;2024-01-30T15:14:47;10.90;99.90
4695;DHT22;2361;49.540;8.390;2024-01-30T15:17:12;10.90;99.90
4695;DHT22;2361;49.540;8.390;2024-01-30T15:19:34;10.80;99.90
4695;DHT22;2361;49.540;8.390;2024-01-30T15:21:56;10.80;99.90
4695;DHT22;2361;49.540;8.390;2024-01-30T15:24:18;10.80;99.90
4695;DHT22;2361;49.540;8.390;2024-01-30T15:26:42;10.80;99.90
4695;DHT22;2361;49.540;8.390;2024-01-30T15:29:04;10.80;99.90
4695;DHT22;2361;49.540;8.390;2024-01-30T15:31:26;10.70;99.90
4695;DHT22;2361;49.540;8.390;2024-01-30T15:33:48;10.70;99.90
4695;DHT22;2361;49.540;8.390;2024-01-30T15:36:11;10.70;99.90
4695;DHT22;2361;49.540;8.390;2024-01-30T15:38:36;10.80;99.90
4695;DHT22;2361;49.540;8.390;2024-01-30T15:40:58;10.80;99.90
4695;DHT22;2361;49.540;8.390;2024-01-30T15:43:20;10.80;99.90